ZKDAY YMCL-YYAC
Flight info
| Callsign | ZKDAY |
|---|---|
| Flight time | N/A |
| Altitude | 2500 |
| Route | DCT |
| Aircraft | C172/L-VGD/C |
Departure
| Time | 2026-04-14 21:17 |
|---|---|
| Airport | Mount Coolon Airport (YMCL) |
Arrival
| Time | N/A |
|---|---|
| Airport | Yacamunda Airport (YYAC) |
| Time | Latitude | Longitude | Altitude | Speed | Heading |
|---|---|---|---|---|---|
| 2026-04-14 21:16 | -21.38928 | 147.32655 | 777 ft | 0 kts | 57° |
| 2026-04-14 21:17 | -21.38917 | 147.32682 | 777 ft | 20 kts | 69° |
| 2026-04-14 21:17 | -21.38776 | 147.32970 | 784 ft | 67 kts | 61° |
| 2026-04-14 21:17 | -21.38514 | 147.33486 | 871 ft | 86 kts | 79° |
| 2026-04-14 21:18 | -21.38350 | 147.34085 | 1157 ft | 80 kts | 78° |
| 2026-04-14 21:18 | -21.38129 | 147.34600 | 1424 ft | 81 kts | 43° |
| 2026-04-14 21:18 | -21.37506 | 147.34534 | 1549 ft | 102 kts | 340° |
| 2026-04-14 21:18 | -21.36946 | 147.34092 | 1746 ft | 112 kts | 305° |
| 2026-04-14 21:19 | -21.36924 | 147.33228 | 1778 ft | 127 kts | 238° |
| 2026-04-14 21:19 | -21.37317 | 147.32389 | 1792 ft | 128 kts | 243° |
| 2026-04-14 21:19 | -21.37638 | 147.31512 | 1787 ft | 123 kts | 243° |
| 2026-04-14 21:19 | -21.37967 | 147.30689 | 1783 ft | 111 kts | 224° |
| 2026-04-14 21:20 | -21.38570 | 147.30483 | 1531 ft | 85 kts | 160° |
| 2026-04-14 21:20 | -21.39076 | 147.30691 | 1340 ft | 75 kts | 150° |
| 2026-04-14 21:20 | -21.39384 | 147.31097 | 1132 ft | 80 kts | 99° |
| 2026-04-14 21:20 | -21.39294 | 147.31696 | 1008 ft | 79 kts | 77° |
| 2026-04-14 21:21 | -21.39114 | 147.32184 | 919 ft | 65 kts | 73° |
| 2026-04-14 21:21 | -21.38928 | 147.32612 | 797 ft | 60 kts | 74° |
| 2026-04-14 21:21 | -21.38779 | 147.32953 | 779 ft | 33 kts | 78° |
| 2026-04-14 21:21 | -21.38762 | 147.32969 | 783 ft | 14 kts | 229° |
| 2026-04-14 21:22 | -21.38838 | 147.32839 | 780 ft | 29 kts | 245° |
| 2026-04-14 21:22 | -21.38896 | 147.32688 | 775 ft | 8 kts | 332° |
| 2026-04-14 21:22 | -21.38891 | 147.32689 | 778 ft | 0 kts | 63° |